sensor_id;sensor_type;location;lat;lon;timestamp;pressure;altitude;pressure_sealevel;temperature;humidity
62948;BME280;51940;52.126;-0.994;2023-04-22T00:02:02;99608.39;;;5.15;100.00
62948;BME280;51940;52.126;-0.994;2023-04-22T00:04:27;99608.18;;;5.17;100.00
62948;BME280;51940;52.126;-0.994;2023-04-22T00:06:54;99605.15;;;5.18;100.00
62948;BME280;51940;52.126;-0.994;2023-04-22T00:09:19;99599.17;;;5.16;100.00
62948;BME280;51940;52.126;-0.994;2023-04-22T00:11:44;99593.33;;;5.17;100.00
62948;BME280;51940;52.126;-0.994;2023-04-22T00:14:10;99589.65;;;5.15;100.00
62948;BME280;51940;52.126;-0.994;2023-04-22T00:16:35;99586.71;;;5.09;100.00
62948;BME280;51940;52.126;-0.994;2023-04-22T00:19:00;99583.81;;;5.03;100.00
62948;BME280;51940;52.126;-0.994;2023-04-22T00:21:25;99578.27;;;4.96;100.00
62948;BME280;51940;52.126;-0.994;2023-04-22T00:23:51;99572.26;;;4.96;100.00
62948;BME280;51940;52.126;-0.994;2023-04-22T00:26:16;99568.77;;;4.93;100.00
62948;BME280;51940;52.126;-0.994;2023-04-22T00:28:42;99568.29;;;4.90;100.00
62948;BME280;51940;52.126;-0.994;2023-04-22T00:31:07;99565.10;;;4.90;100.00
62948;BME280;51940;52.126;-0.994;2023-04-22T00:33:32;99560.19;;;4.87;100.00
62948;BME280;51940;52.126;-0.994;2023-04-22T00:35:57;99560.36;;;4.88;100.00
62948;BME280;51940;52.126;-0.994;2023-04-22T00:38:23;99552.77;;;4.89;100.00
62948;BME280;51940;52.126;-0.994;2023-04-22T00:40:48;99547.48;;;4.86;100.00
62948;BME280;51940;52.126;-0.994;2023-04-22T00:43:15;99543.48;;;4.82;100.00
62948;BME280;51940;52.126;-0.994;2023-04-22T00:45:40;99541.83;;;4.74;100.00
62948;BME280;51940;52.126;-0.994;2023-04-22T00:48:06;99538.96;;;4.64;100.00
62948;BME280;51940;52.126;-0.994;2023-04-22T00:50:32;99536.80;;;4.55;100.00
62948;BME280;51940;52.126;-0.994;2023-04-22T00:52:57;99536.05;;;4.45;100.00
62948;BME280;51940;52.126;-0.994;2023-04-22T00:55:22;99536.33;;;4.38;100.00
62948;BME280;51940;52.126;-0.994;2023-04-22T00:57:48;99530.54;;;4.34;100.00
62948;BME280;51940;52.126;-0.994;2023-04-22T01:00:15;99529.42;;;4.26;100.00
62948;BME280;51940;52.126;-0.994;2023-04-22T01:02:41;99524.58;;;4.17;100.00
62948;BME280;51940;52.126;-0.994;2023-04-22T01:05:07;99522.52;;;4.12;100.00
62948;BME280;51940;52.126;-0.994;2023-04-22T01:07:34;99517.98;;;4.07;100.00
62948;BME280;51940;52.126;-0.994;2023-04-22T01:09:59;99517.36;;;4.01;100.00
62948;BME280;51940;52.126;-0.994;2023-04-22T01:12:25;99516.40;;;3.92;100.00
62948;BME280;51940;52.126;-0.994;2023-04-22T01:14:51;99513.31;;;3.85;100.00
62948;BME280;51940;52.126;-0.994;2023-04-22T01:17:16;99507.39;;;3.78;100.00
62948;BME280;51940;52.126;-0.994;2023-04-22T01:19:43;99502.12;;;3.76;100.00
62948;BME280;51940;52.126;-0.994;2023-04-22T01:22:09;99501.76;;;3.78;100.00
62948;BME280;51940;52.126;-0.994;2023-04-22T01:24:36;99498.94;;;3.78;100.00
62948;BME280;51940;52.126;-0.994;2023-04-22T01:27:02;99495.26;;;3.74;100.00
62948;BME280;51940;52.126;-0.994;2023-04-22T01:29:27;99488.40;;;3.72;100.00
62948;BME280;51940;52.126;-0.994;2023-04-22T01:31:52;99486.96;;;3.75;100.00
62948;BME280;51940;52.126;-0.994;2023-04-22T01:34:18;99487.11;;;3.78;100.00
62948;BME280;51940;52.126;-0.994;2023-04-22T01:36:44;99487.60;;;3.80;100.00
62948;BME280;51940;52.126;-0.994;2023-04-22T01:39:09;99480.15;;;3.84;100.00
62948;BME280;51940;52.126;-0.994;2023-04-22T01:41:34;99478.20;;;3.84;100.00
62948;BME280;51940;52.126;-0.994;2023-04-22T01:44:00;99472.45;;;3.79;100.00
62948;BME280;51940;52.126;-0.994;2023-04-22T01:46:27;99473.76;;;3.73;100.00
62948;BME280;51940;52.126;-0.994;2023-04-22T01:48:52;99477.13;;;3.72;100.00
62948;BME280;51940;52.126;-0.994;2023-04-22T01:51:18;99477.27;;;3.75;100.00
62948;BME280;51940;52.126;-0.994;2023-04-22T01:53:47;99473.52;;;3.79;100.00
62948;BME280;51940;52.126;-0.994;2023-04-22T01:56:13;99476.13;;;3.81;100.00
62948;BME280;51940;52.126;-0.994;2023-04-22T01:58:38;99479.63;;;3.84;100.00
62948;BME280;51940;52.126;-0.994;2023-04-22T02:01:04;99481.00;;;3.88;100.00
62948;BME280;51940;52.126;-0.994;2023-04-22T02:03:30;99478.83;;;3.91;100.00
62948;BME280;51940;52.126;-0.994;2023-04-22T02:05:55;99474.20;;;3.96;100.00
62948;BME280;51940;52.126;-0.994;2023-04-22T02:08:21;99469.60;;;3.96;100.00
62948;BME280;51940;52.126;-0.994;2023-04-22T02:10:46;99465.90;;;3.96;100.00
62948;BME280;51940;52.126;-0.994;2023-04-22T02:13:11;99460.71;;;4.01;100.00
62948;BME280;51940;52.126;-0.994;2023-04-22T02:15:36;99457.84;;;4.06;100.00
62948;BME280;51940;52.126;-0.994;2023-04-22T02:18:11;99464.14;;;4.09;100.00
62948;BME280;51940;52.126;-0.994;2023-04-22T02:20:37;99466.30;;;4.06;100.00
62948;BME280;51940;52.126;-0.994;2023-04-22T02:23:02;99464.95;;;4.02;100.00
62948;BME280;51940;52.126;-0.994;2023-04-22T02:25:27;99458.09;;;4.00;100.00
62948;BME280;51940;52.126;-0.994;2023-04-22T02:27:53;99457.41;;;3.98;100.00
62948;BME280;51940;52.126;-0.994;2023-04-22T02:30:18;99450.39;;;3.95;100.00
62948;BME280;51940;52.126;-0.994;2023-04-22T02:32:43;99449.70;;;3.95;100.00
62948;BME280;51940;52.126;-0.994;2023-04-22T02:35:09;99444.56;;;3.96;100.00
62948;BME280;51940;52.126;-0.994;2023-04-22T02:37:35;99439.02;;;4.01;100.00
62948;BME280;51940;52.126;-0.994;2023-04-22T02:40:00;99433.15;;;4.05;100.00
62948;BME280;51940;52.126;-0.994;2023-04-22T02:42:25;99429.89;;;4.11;100.00
62948;BME280;51940;52.126;-0.994;2023-04-22T02:44:51;99430.88;;;4.16;100.00
62948;BME280;51940;52.126;-0.994;2023-04-22T02:47:16;99435.08;;;4.18;100.00
62948;BME280;51940;52.126;-0.994;2023-04-22T02:49:41;99429.41;;;4.21;100.00
62948;BME280;51940;52.126;-0.994;2023-04-22T02:52:06;99427.08;;;4.23;100.00
62948;BME280;51940;52.126;-0.994;2023-04-22T02:54:32;99427.05;;;4.24;100.00
62948;BME280;51940;52.126;-0.994;2023-04-22T02:56:57;99425.31;;;4.23;100.00
62948;BME280;51940;52.126;-0.994;2023-04-22T02:59:22;99424.10;;;4.22;100.00
62948;BME280;51940;52.126;-0.994;2023-04-22T03:01:48;99423.23;;;4.21;100.00
62948;BME280;51940;52.126;-0.994;2023-04-22T03:04:14;99427.62;;;4.22;100.00
62948;BME280;51940;52.126;-0.994;2023-04-22T03:06:41;99427.79;;;4.23;100.00
62948;BME280;51940;52.126;-0.994;2023-04-22T03:09:06;99427.27;;;4.22;100.00
62948;BME280;51940;52.126;-0.994;2023-04-22T03:11:31;99420.54;;;4.23;100.00
62948;BME280;51940;52.126;-0.994;2023-04-22T03:13:57;99412.96;;;4.23;100.00
62948;BME280;51940;52.126;-0.994;2023-04-22T03:16:22;99407.48;;;4.24;100.00
62948;BME280;51940;52.126;-0.994;2023-04-22T03:18:48;99401.61;;;4.26;100.00
62948;BME280;51940;52.126;-0.994;2023-04-22T03:21:13;99397.17;;;4.29;100.00
62948;BME280;51940;52.126;-0.994;2023-04-22T03:23:38;99390.38;;;4.34;100.00
62948;BME280;51940;52.126;-0.994;2023-04-22T03:26:04;99387.36;;;4.37;100.00
62948;BME280;51940;52.126;-0.994;2023-04-22T03:28:30;99384.83;;;4.40;100.00
62948;BME280;51940;52.126;-0.994;2023-04-22T03:30:55;99381.41;;;4.43;100.00
62948;BME280;51940;52.126;-0.994;2023-04-22T03:33:20;99378.71;;;4.47;100.00
62948;BME280;51940;52.126;-0.994;2023-04-22T03:35:47;99374.92;;;4.51;100.00
62948;BME280;51940;52.126;-0.994;2023-04-22T03:38:13;99368.89;;;4.54;100.00
62948;BME280;51940;52.126;-0.994;2023-04-22T03:40:38;99366.74;;;4.56;100.00
62948;BME280;51940;52.126;-0.994;2023-04-22T03:43:03;99365.55;;;4.54;100.00
62948;BME280;51940;52.126;-0.994;2023-04-22T03:45:29;99361.30;;;4.55;100.00
62948;BME280;51940;52.126;-0.994;2023-04-22T03:47:54;99360.54;;;4.58;100.00
62948;BME280;51940;52.126;-0.994;2023-04-22T03:50:20;99362.60;;;4.61;100.00
62948;BME280;51940;52.126;-0.994;2023-04-22T03:52:45;99360.80;;;4.64;100.00
62948;BME280;51940;52.126;-0.994;2023-04-22T03:55:10;99360.25;;;4.64;100.00
62948;BME280;51940;52.126;-0.994;2023-04-22T03:57:37;99359.02;;;4.63;100.00
62948;BME280;51940;52.126;-0.994;2023-04-22T04:00:02;99355.83;;;4.64;100.00
62948;BME280;51940;52.126;-0.994;2023-04-22T04:02:28;99353.48;;;4.66;100.00
62948;BME280;51940;52.126;-0.994;2023-04-22T04:04:53;99351.00;;;4.68;100.00
62948;BME280;51940;52.126;-0.994;2023-04-22T04:07:19;99347.50;;;4.66;100.00
62948;BME280;51940;52.126;-0.994;2023-04-22T04:09:44;99345.27;;;4.63;100.00
62948;BME280;51940;52.126;-0.994;2023-04-22T04:12:09;99346.35;;;4.60;100.00
62948;BME280;51940;52.126;-0.994;2023-04-22T04:14:35;99340.02;;;4.59;100.00
62948;BME280;51940;52.126;-0.994;2023-04-22T04:17:00;99335.61;;;4.59;100.00
62948;BME280;51940;52.126;-0.994;2023-04-22T04:19:25;99328.34;;;4.60;100.00
62948;BME280;51940;52.126;-0.994;2023-04-22T04:21:51;99332.39;;;4.62;100.00
62948;BME280;51940;52.126;-0.994;2023-04-22T04:24:16;99332.56;;;4.62;100.00
62948;BME280;51940;52.126;-0.994;2023-04-22T04:26:41;99330.45;;;4.61;100.00
62948;BME280;51940;52.126;-0.994;2023-04-22T04:29:06;99327.80;;;4.62;100.00
62948;BME280;51940;52.126;-0.994;2023-04-22T04:31:32;99326.38;;;4.63;100.00
62948;BME280;51940;52.126;-0.994;2023-04-22T04:33:57;99326.88;;;4.64;100.00
62948;BME280;51940;52.126;-0.994;2023-04-22T04:36:23;99325.45;;;4.64;100.00
62948;BME280;51940;52.126;-0.994;2023-04-22T04:38:53;99324.54;;;4.66;100.00
62948;BME280;51940;52.126;-0.994;2023-04-22T04:41:18;99322.58;;;4.67;100.00
62948;BME280;51940;52.126;-0.994;2023-04-22T04:43:45;99324.14;;;4.68;100.00
62948;BME280;51940;52.126;-0.994;2023-04-22T04:46:12;99326.77;;;4.70;100.00
62948;BME280;51940;52.126;-0.994;2023-04-22T04:48:39;99325.70;;;4.71;100.00
62948;BME280;51940;52.126;-0.994;2023-04-22T04:51:06;99320.44;;;4.68;100.00
62948;BME280;51940;52.126;-0.994;2023-04-22T04:53:32;99322.58;;;4.67;100.00
62948;BME280;51940;52.126;-0.994;2023-04-22T04:55:57;99323.46;;;4.67;100.00
62948;BME280;51940;52.126;-0.994;2023-04-22T04:58:23;99326.64;;;4.67;100.00
62948;BME280;51940;52.126;-0.994;2023-04-22T05:00:48;99325.73;;;4.68;100.00
62948;BME280;51940;52.126;-0.994;2023-04-22T05:03:13;99321.15;;;4.68;100.00
62948;BME280;51940;52.126;-0.994;2023-04-22T05:05:38;99319.73;;;4.68;100.00
62948;BME280;51940;52.126;-0.994;2023-04-22T05:08:04;99317.11;;;4.67;100.00
62948;BME280;51940;52.126;-0.994;2023-04-22T05:10:29;99317.30;;;4.65;100.00
62948;BME280;51940;52.126;-0.994;2023-04-22T05:12:54;99315.70;;;4.67;100.00
62948;BME280;51940;52.126;-0.994;2023-04-22T05:15:20;99319.52;;;4.70;100.00
62948;BME280;51940;52.126;-0.994;2023-04-22T05:17:45;99314.73;;;4.72;100.00
62948;BME280;51940;52.126;-0.994;2023-04-22T05:20:10;99309.77;;;4.73;100.00
62948;BME280;51940;52.126;-0.994;2023-04-22T05:22:36;99308.48;;;4.75;100.00
62948;BME280;51940;52.126;-0.994;2023-04-22T05:25:04;99306.30;;;4.79;100.00
62948;BME280;51940;52.126;-0.994;2023-04-22T05:27:29;99302.16;;;4.83;100.00
62948;BME280;51940;52.126;-0.994;2023-04-22T05:29:55;99300.52;;;4.86;100.00
62948;BME280;51940;52.126;-0.994;2023-04-22T05:32:20;99302.02;;;4.91;100.00
62948;BME280;51940;52.126;-0.994;2023-04-22T05:34:45;99301.22;;;4.94;100.00
62948;BME280;51940;52.126;-0.994;2023-04-22T05:37:11;99296.42;;;4.97;100.00
62948;BME280;51940;52.126;-0.994;2023-04-22T05:39:36;99293.70;;;5.00;100.00
62948;BME280;51940;52.126;-0.994;2023-04-22T05:42:01;99289.92;;;5.03;100.00
62948;BME280;51940;52.126;-0.994;2023-04-22T05:44:27;99285.92;;;5.09;100.00
62948;BME280;51940;52.126;-0.994;2023-04-22T05:46:52;99286.35;;;5.15;100.00
62948;BME280;51940;52.126;-0.994;2023-04-22T05:49:18;99288.54;;;5.20;100.00
62948;BME280;51940;52.126;-0.994;2023-04-22T05:51:43;99289.73;;;5.23;100.00
62948;BME280;51940;52.126;-0.994;2023-04-22T05:54:08;99293.00;;;5.26;100.00
62948;BME280;51940;52.126;-0.994;2023-04-22T05:56:34;99296.48;;;5.30;100.00
62948;BME280;51940;52.126;-0.994;2023-04-22T05:58:59;99297.44;;;5.34;100.00
62948;BME280;51940;52.126;-0.994;2023-04-22T06:01:25;99294.50;;;5.40;100.00
62948;BME280;51940;52.126;-0.994;2023-04-22T06:03:50;99295.80;;;5.45;100.00
62948;BME280;51940;52.126;-0.994;2023-04-22T06:06:15;99294.08;;;5.51;100.00
62948;BME280;51940;52.126;-0.994;2023-04-22T06:08:41;99296.23;;;5.57;100.00
62948;BME280;51940;52.126;-0.994;2023-04-22T06:11:06;99297.15;;;5.64;100.00
62948;BME280;51940;52.126;-0.994;2023-04-22T06:13:32;99298.06;;;5.72;100.00
62948;BME280;51940;52.126;-0.994;2023-04-22T06:15:58;99296.86;;;5.77;100.00
62948;BME280;51940;52.126;-0.994;2023-04-22T06:18:23;99300.10;;;5.84;100.00
62948;BME280;51940;52.126;-0.994;2023-04-22T06:20:49;99305.12;;;5.88;100.00
62948;BME280;51940;52.126;-0.994;2023-04-22T06:23:15;99301.85;;;5.93;100.00
62948;BME280;51940;52.126;-0.994;2023-04-22T06:25:41;99297.67;;;5.98;100.00
62948;BME280;51940;52.126;-0.994;2023-04-22T06:28:06;99288.50;;;6.04;100.00
62948;BME280;51940;52.126;-0.994;2023-04-22T06:30:31;99288.89;;;6.10;100.00
62948;BME280;51940;52.126;-0.994;2023-04-22T06:32:57;99291.80;;;6.14;100.00
62948;BME280;51940;52.126;-0.994;2023-04-22T06:35:22;99289.30;;;6.15;100.00
62948;BME280;51940;52.126;-0.994;2023-04-22T06:37:47;99290.75;;;6.21;100.00
62948;BME280;51940;52.126;-0.994;2023-04-22T06:40:13;99292.67;;;6.30;100.00
62948;BME280;51940;52.126;-0.994;2023-04-22T06:42:38;99290.85;;;6.38;100.00
62948;BME280;51940;52.126;-0.994;2023-04-22T06:45:04;99288.33;;;6.47;100.00
62948;BME280;51940;52.126;-0.994;2023-04-22T06:47:29;99288.02;;;6.53;100.00
62948;BME280;51940;52.126;-0.994;2023-04-22T06:49:54;99291.80;;;6.51;100.00
62948;BME280;51940;52.126;-0.994;2023-04-22T06:52:20;99291.31;;;6.56;100.00
62948;BME280;51940;52.126;-0.994;2023-04-22T06:54:46;99293.16;;;6.60;100.00
62948;BME280;51940;52.126;-0.994;2023-04-22T06:57:11;99296.78;;;6.63;100.00
62948;BME280;51940;52.126;-0.994;2023-04-22T06:59:36;99302.52;;;6.67;100.00
62948;BME280;51940;52.126;-0.994;2023-04-22T07:02:02;99311.30;;;6.70;100.00
62948;BME280;51940;52.126;-0.994;2023-04-22T07:04:27;99311.26;;;6.72;100.00
62948;BME280;51940;52.126;-0.994;2023-04-22T07:06:53;99312.27;;;6.74;100.00
62948;BME280;51940;52.126;-0.994;2023-04-22T07:09:19;99319.09;;;6.78;100.00
62948;BME280;51940;52.126;-0.994;2023-04-22T07:11:44;99323.76;;;6.82;100.00
62948;BME280;51940;52.126;-0.994;2023-04-22T07:14:10;99322.79;;;6.86;100.00
62948;BME280;51940;52.126;-0.994;2023-04-22T07:16:35;99314.58;;;6.88;100.00
62948;BME280;51940;52.126;-0.994;2023-04-22T07:19:03;99305.89;;;6.88;100.00
62948;BME280;51940;52.126;-0.994;2023-04-22T07:21:31;99307.27;;;6.89;100.00
62948;BME280;51940;52.126;-0.994;2023-04-22T07:23:57;99313.55;;;6.93;100.00
62948;BME280;51940;52.126;-0.994;2023-04-22T07:26:22;99321.41;;;6.97;100.00
62948;BME280;51940;52.126;-0.994;2023-04-22T07:28:48;99313.48;;;7.02;100.00
62948;BME280;51940;52.126;-0.994;2023-04-22T07:31:13;99310.77;;;7.10;100.00
62948;BME280;51940;52.126;-0.994;2023-04-22T07:33:38;99301.61;;;7.15;100.00
62948;BME280;51940;52.126;-0.994;2023-04-22T07:36:05;99304.05;;;7.16;100.00
62948;BME280;51940;52.126;-0.994;2023-04-22T07:38:30;99296.45;;;7.22;100.00
62948;BME280;51940;52.126;-0.994;2023-04-22T07:40:55;99293.19;;;7.37;100.00
62948;BME280;51940;52.126;-0.994;2023-04-22T07:43:21;99296.92;;;7.54;100.00
62948;BME280;51940;52.126;-0.994;2023-04-22T07:45:46;99296.90;;;7.73;100.00
62948;BME280;51940;52.126;-0.994;2023-04-22T07:48:11;99306.42;;;7.81;100.00
62948;BME280;51940;52.126;-0.994;2023-04-22T07:50:36;99312.41;;;7.88;100.00
62948;BME280;51940;52.126;-0.994;2023-04-22T07:53:02;99316.65;;;8.01;100.00
62948;BME280;51940;52.126;-0.994;2023-04-22T07:55:27;99322.66;;;8.07;100.00
62948;BME280;51940;52.126;-0.994;2023-04-22T07:57:52;99319.52;;;8.00;100.00
62948;BME280;51940;52.126;-0.994;2023-04-22T08:00:18;99315.71;;;7.97;100.00
62948;BME280;51940;52.126;-0.994;2023-04-22T08:02:43;99315.24;;;7.94;100.00
62948;BME280;51940;52.126;-0.994;2023-04-22T08:05:08;99318.72;;;7.91;100.00
62948;BME280;51940;52.126;-0.994;2023-04-22T08:07:35;99323.58;;;7.95;100.00
62948;BME280;51940;52.126;-0.994;2023-04-22T08:10:04;99324.61;;;8.07;100.00
62948;BME280;51940;52.126;-0.994;2023-04-22T08:12:32;99329.38;;;8.14;100.00
62948;BME280;51940;52.126;-0.994;2023-04-22T08:14:57;99324.96;;;8.42;100.00
62948;BME280;51940;52.126;-0.994;2023-04-22T08:17:22;99321.77;;;8.79;100.00
62948;BME280;51940;52.126;-0.994;2023-04-22T08:19:48;99324.14;;;8.98;100.00
62948;BME280;51940;52.126;-0.994;2023-04-22T08:22:14;99325.10;;;9.11;100.00
62948;BME280;51940;52.126;-0.994;2023-04-22T08:24:41;99320.55;;;9.19;100.00
62948;BME280;51940;52.126;-0.994;2023-04-22T08:27:07;99317.59;;;9.42;100.00
62948;BME280;51940;52.126;-0.994;2023-04-22T08:29:32;99314.75;;;9.66;100.00
62948;BME280;51940;52.126;-0.994;2023-04-22T08:31:58;99322.66;;;9.69;100.00
62948;BME280;51940;52.126;-0.994;2023-04-22T08:34:23;99322.55;;;9.57;100.00
62948;BME280;51940;52.126;-0.994;2023-04-22T08:36:50;99320.89;;;9.44;100.00
62948;BME280;51940;52.126;-0.994;2023-04-22T08:39:15;99311.86;;;9.48;100.00
62948;BME280;51940;52.126;-0.994;2023-04-22T08:41:41;99304.54;;;9.72;100.00
62948;BME280;51940;52.126;-0.994;2023-04-22T08:44:08;99300.48;;;10.03;100.00
62948;BME280;51940;52.126;-0.994;2023-04-22T08:46:37;99306.12;;;10.32;100.00
62948;BME280;51940;52.126;-0.994;2023-04-22T08:49:03;99307.99;;;10.60;100.00
62948;BME280;51940;52.126;-0.994;2023-04-22T08:51:28;99312.13;;;10.77;100.00
62948;BME280;51940;52.126;-0.994;2023-04-22T08:53:57;99313.09;;;10.92;100.00
62948;BME280;51940;52.126;-0.994;2023-04-22T08:56:23;99314.16;;;11.04;100.00
62948;BME280;51940;52.126;-0.994;2023-04-22T08:58:48;99312.66;;;11.06;100.00
62948;BME280;51940;52.126;-0.994;2023-04-22T09:01:14;99311.69;;;10.99;100.00
62948;BME280;51940;52.126;-0.994;2023-04-22T09:03:41;99310.05;;;11.00;100.00
62948;BME280;51940;52.126;-0.994;2023-04-22T09:06:07;99311.58;;;11.10;100.00
62948;BME280;51940;52.126;-0.994;2023-04-22T09:08:34;99304.89;;;11.40;100.00
62948;BME280;51940;52.126;-0.994;2023-04-22T09:11:00;99307.90;;;11.68;100.00
62948;BME280;51940;52.126;-0.994;2023-04-22T09:13:25;99302.88;;;11.96;100.00
62948;BME280;51940;52.126;-0.994;2023-04-22T09:15:51;99303.09;;;12.14;100.00
62948;BME280;51940;52.126;-0.994;2023-04-22T09:18:17;99308.14;;;12.32;100.00
62948;BME280;51940;52.126;-0.994;2023-04-22T09:20:48;99313.02;;;12.45;100.00
62948;BME280;51940;52.126;-0.994;2023-04-22T09:23:13;99320.80;;;12.51;100.00
62948;BME280;51940;52.126;-0.994;2023-04-22T09:25:41;99320.46;;;12.65;100.00
62948;BME280;51940;52.126;-0.994;2023-04-22T09:28:11;99318.20;;;12.92;100.00
62948;BME280;51940;52.126;-0.994;2023-04-22T09:30:46;99322.39;;;13.12;100.00
62948;BME280;51940;52.126;-0.994;2023-04-22T09:33:11;99324.42;;;13.28;100.00
62948;BME280;51940;52.126;-0.994;2023-04-22T09:35:41;99323.38;;;13.41;100.00
62948;BME280;51940;52.126;-0.994;2023-04-22T09:38:08;99324.94;;;13.45;100.00
62948;BME280;51940;52.126;-0.994;2023-04-22T09:40:34;99330.48;;;13.45;100.00
62948;BME280;51940;52.126;-0.994;2023-04-22T09:43:01;99331.68;;;13.43;100.00
62948;BME280;51940;52.126;-0.994;2023-04-22T09:45:28;99326.50;;;13.42;100.00
62948;BME280;51940;52.126;-0.994;2023-04-22T09:47:54;99319.30;;;13.54;100.00
62948;BME280;51940;52.126;-0.994;2023-04-22T09:50:21;99323.54;;;13.62;100.00
62948;BME280;51940;52.126;-0.994;2023-04-22T09:52:53;99321.93;;;13.61;100.00
62948;BME280;51940;52.126;-0.994;2023-04-22T09:55:20;99321.95;;;13.74;100.00
62948;BME280;51940;52.126;-0.994;2023-04-22T09:57:46;99325.17;;;13.87;100.00
62948;BME280;51940;52.126;-0.994;2023-04-22T10:00:11;99321.45;;;14.06;100.00
62948;BME280;51940;52.126;-0.994;2023-04-22T10:02:38;99312.44;;;14.26;100.00
62948;BME280;51940;52.126;-0.994;2023-04-22T10:05:03;99319.90;;;14.37;100.00
62948;BME280;51940;52.126;-0.994;2023-04-22T10:07:29;99326.60;;;14.29;100.00
62948;BME280;51940;52.126;-0.994;2023-04-22T10:09:56;99319.03;;;14.33;100.00
62948;BME280;51940;52.126;-0.994;2023-04-22T10:12:21;99314.02;;;14.52;100.00
62948;BME280;51940;52.126;-0.994;2023-04-22T10:14:46;99320.50;;;14.58;100.00
62948;BME280;51940;52.126;-0.994;2023-04-22T10:17:12;99325.26;;;14.47;100.00
62948;BME280;51940;52.126;-0.994;2023-04-22T10:19:38;99326.59;;;14.33;100.00
62948;BME280;51940;52.126;-0.994;2023-04-22T10:22:04;99329.69;;;14.20;100.00
62948;BME280;51940;52.126;-0.994;2023-04-22T10:24:34;99327.70;;;14.10;100.00
62948;BME280;51940;52.126;-0.994;2023-04-22T10:27:02;99335.02;;;13.87;100.00
62948;BME280;51940;52.126;-0.994;2023-04-22T10:29:34;99341.29;;;13.58;100.00
62948;BME280;51940;52.126;-0.994;2023-04-22T10:34:35;99339.39;;;13.36;100.00
62948;BME280;51940;52.126;-0.994;2023-04-22T10:37:08;99338.92;;;13.35;100.00
62948;BME280;51940;52.126;-0.994;2023-04-22T10:39:33;99337.36;;;13.34;100.00
62948;BME280;51940;52.126;-0.994;2023-04-22T10:44:27;99335.55;;;13.54;100.00
62948;BME280;51940;52.126;-0.994;2023-04-22T10:46:54;99336.06;;;13.59;100.00
62948;BME280;51940;52.126;-0.994;2023-04-22T10:49:24;99340.89;;;13.45;100.00
62948;BME280;51940;52.126;-0.994;2023-04-22T10:51:50;99344.73;;;13.23;100.00
62948;BME280;51940;52.126;-0.994;2023-04-22T10:57:12;99340.61;;;13.30;100.00
62948;BME280;51940;52.126;-0.994;2023-04-22T10:59:47;99338.52;;;13.42;100.00
62948;BME280;51940;52.126;-0.994;2023-04-22T11:02:13;99335.79;;;13.43;100.00
62948;BME280;51940;52.126;-0.994;2023-04-22T11:04:43;99334.53;;;13.53;100.00
62948;BME280;51940;52.126;-0.994;2023-04-22T11:10:00;99335.27;;;13.70;100.00
62948;BME280;51940;52.126;-0.994;2023-04-22T11:15:10;99341.77;;;13.95;100.00
62948;BME280;51940;52.126;-0.994;2023-04-22T11:17:36;99342.66;;;14.05;100.00
62948;BME280;51940;52.126;-0.994;2023-04-22T11:20:02;99342.97;;;14.13;100.00
62948;BME280;51940;52.126;-0.994;2023-04-22T11:22:29;99350.45;;;14.20;100.00
62948;BME280;51940;52.126;-0.994;2023-04-22T11:25:07;99351.83;;;14.24;100.00
62948;BME280;51940;52.126;-0.994;2023-04-22T11:27:36;99347.52;;;14.28;100.00
62948;BME280;51940;52.126;-0.994;2023-04-22T11:30:02;99346.69;;;14.30;100.00
62948;BME280;51940;52.126;-0.994;2023-04-22T11:32:28;99345.66;;;14.38;100.00
62948;BME280;51940;52.126;-0.994;2023-04-22T11:34:53;99345.14;;;14.51;100.00
62948;BME280;51940;52.126;-0.994;2023-04-22T11:37:18;99342.68;;;14.65;100.00
62948;BME280;51940;52.126;-0.994;2023-04-22T11:39:44;99346.58;;;14.79;100.00
62948;BME280;51940;52.126;-0.994;2023-04-22T11:42:11;99350.61;;;14.87;100.00
62948;BME280;51940;52.126;-0.994;2023-04-22T11:44:37;99359.23;;;14.74;100.00
62948;BME280;51940;52.126;-0.994;2023-04-22T11:47:02;99356.48;;;14.63;100.00
62948;BME280;51940;52.126;-0.994;2023-04-22T11:49:27;99348.02;;;14.73;100.00
62948;BME280;51940;52.126;-0.994;2023-04-22T11:51:56;99350.25;;;14.87;100.00
62948;BME280;51940;52.126;-0.994;2023-04-22T11:54:34;99351.49;;;14.96;100.00
62948;BME280;51940;52.126;-0.994;2023-04-22T11:57:02;99351.77;;;15.10;100.00
62948;BME280;51940;52.126;-0.994;2023-04-22T11:59:29;99357.63;;;15.23;100.00
62948;BME280;51940;52.126;-0.994;2023-04-22T12:01:56;99364.64;;;15.29;100.00
62948;BME280;51940;52.126;-0.994;2023-04-22T12:04:22;99362.05;;;15.36;100.00
62948;BME280;51940;52.126;-0.994;2023-04-22T12:06:48;99367.17;;;15.43;100.00
62948;BME280;51940;52.126;-0.994;2023-04-22T12:09:13;99371.89;;;15.48;100.00
62948;BME280;51940;52.126;-0.994;2023-04-22T12:11:38;99376.67;;;15.50;100.00
62948;BME280;51940;52.126;-0.994;2023-04-22T12:14:04;99378.56;;;15.42;100.00
62948;BME280;51940;52.126;-0.994;2023-04-22T12:16:37;99377.73;;;15.47;100.00
62948;BME280;51940;52.126;-0.994;2023-04-22T12:19:03;99381.07;;;15.54;100.00
62948;BME280;51940;52.126;-0.994;2023-04-22T12:21:29;99388.17;;;15.55;100.00
62948;BME280;51940;52.126;-0.994;2023-04-22T12:23:57;99387.42;;;15.47;100.00
62948;BME280;51940;52.126;-0.994;2023-04-22T12:26:23;99384.77;;;15.47;100.00
62948;BME280;51940;52.126;-0.994;2023-04-22T12:28:49;99389.12;;;15.46;100.00
62948;BME280;51940;52.126;-0.994;2023-04-22T12:31:15;99387.28;;;15.44;100.00
62948;BME280;51940;52.126;-0.994;2023-04-22T12:33:41;99384.66;;;15.40;100.00
62948;BME280;51940;52.126;-0.994;2023-04-22T12:36:07;99386.42;;;15.43;100.00
62948;BME280;51940;52.126;-0.994;2023-04-22T12:38:32;99389.05;;;15.59;100.00
62948;BME280;51940;52.126;-0.994;2023-04-22T12:40:58;99383.67;;;15.74;100.00
62948;BME280;51940;52.126;-0.994;2023-04-22T12:43:23;99392.81;;;15.80;100.00
62948;BME280;51940;52.126;-0.994;2023-04-22T12:45:49;99394.79;;;15.86;100.00
62948;BME280;51940;52.126;-0.994;2023-04-22T12:48:14;99391.53;;;15.93;100.00
62948;BME280;51940;52.126;-0.994;2023-04-22T12:50:40;99385.73;;;15.96;100.00
62948;BME280;51940;52.126;-0.994;2023-04-22T12:53:05;99382.77;;;16.11;100.00
62948;BME280;51940;52.126;-0.994;2023-04-22T12:55:30;99386.58;;;16.28;100.00